Time;durP1;ratioP1;P1;durP2;ratioP2;P2;SDS_P1;SDS_P2;PMS_P1;PMS_P2;Temp;Humidity;BMP_temperature;BMP_pressure;BME280_temperature;BME280_humidity;BME280_pressure;Samples;Min_cycle;Max_cycle;Signal;HPM_P1;HPM_P2
2022/05/30 00:00:03;;;;;;;;;0.00;0.00;;;;;;;;5002716;28;45737;-60
2022/05/30 00:02:28;;;;;;;;;1.00;1.00;;;;;;;;5001803;28;45466;-62
2022/05/30 00:04:53;;;;;;;;;1.00;1.00;;;;;;;;5021340;28;45587;-61
2022/05/30 00:07:19;;;;;;;;;1.00;1.00;;;;;;;;5007547;28;45373;-63
2022/05/30 00:09:47;;;;;;;;;1.75;1.75;;;;;;;;5007640;28;45339;-62
2022/05/30 00:12:12;;;;;;;;;1.00;1.00;;;;;;;;4995771;28;45502;-62
2022/05/30 00:14:37;;;;;;;;;0.25;0.25;;;;;;;;5013505;28;45422;-62
2022/05/30 00:17:02;;;;;;;;;1.00;1.00;;;;;;;;5012440;28;45515;-61
2022/05/30 00:19:27;;;;;;;;;1.00;1.00;;;;;;;;5008553;28;45635;-62
2022/05/30 00:21:56;;;;;;;;;1.00;1.00;;;;;;;;5010267;28;45425;-62
2022/05/30 00:24:21;;;;;;;;;1.50;1.50;;;;;;;;5011553;28;46238;-61
2022/05/30 00:26:47;;;;;;;;;1.00;1.00;;;;;;;;5011342;28;45327;-62
2022/05/30 00:29:12;;;;;;;;;2.00;2.00;;;;;;;;5010986;28;45568;-62
2022/05/30 00:31:37;;;;;;;;;1.00;1.00;;;;;;;;5007258;28;45920;-62
2022/05/30 00:34:02;;;;;;;;;1.00;1.00;;;;;;;;4987940;28;45375;-62
2022/05/30 00:36:27;;;;;;;;;1.25;1.25;;;;;;;;4997688;28;45546;-61
2022/05/30 00:38:55;;;;;;;;;1.25;1.25;;;;;;;;5014182;28;46386;-62
2022/05/30 00:41:20;;;;;;;;;0.75;0.75;;;;;;;;5012137;28;45510;-62
2022/05/30 00:43:46;;;;;;;;;1.75;1.75;;;;;;;;5012534;28;45340;-62
2022/05/30 00:46:12;;;;;;;;;3.00;2.00;;;;;;;;5013927;28;45295;-62
2022/05/30 00:48:46;;;;;;;;;2.25;1.75;;;;;;;;5013928;28;45616;-62
2022/05/30 00:51:14;;;;;;;;;3.75;2.50;;;;;;;;5011860;28;45461;-61
2022/05/30 00:53:40;;;;;;;;;2.50;2.00;;;;;;;;5004368;28;45470;-63
2022/05/30 00:56:08;;;;;;;;;1.50;1.50;;;;;;;;4993519;28;45437;-61
2022/05/30 00:58:35;;;;;;;;;2.50;2.50;;;;;;;;4998129;28;46899;-62
2022/05/30 01:01:01;;;;;;;;;2.00;2.00;;;;;;;;5013616;28;45371;-61
2022/05/30 01:08:54;;;;;;;;;2.75;2.00;;;;;;;;4994411;28;45809;-61
2022/05/30 01:11:20;;;;;;;;;2.00;2.00;;;;;;;;4996439;28;46097;-61
2022/05/30 01:13:45;;;;;;;;;1.00;1.00;;;;;;;;4995976;28;46076;-61
2022/05/30 01:16:10;;;;;;;;;2.25;2.25;;;;;;;;5011725;28;45301;-61
2022/05/30 01:18:39;;;;;;;;;2.00;2.00;;;;;;;;4999829;28;45984;-61
2022/05/30 01:21:04;;;;;;;;;1.25;1.25;;;;;;;;5000174;28;45372;-61
2022/05/30 01:23:37;;;;;;;;;2.00;2.00;;;;;;;;4987129;28;45335;-63
2022/05/30 01:26:21;;;;;;;;;1.25;1.25;;;;;;;;5003391;28;45300;-62
2022/05/30 01:28:46;;;;;;;;;2.50;1.00;;;;;;;;5011099;28;46578;-62
2022/05/30 01:31:12;;;;;;;;;2.50;2.50;;;;;;;;5009270;28;45434;-62
2022/05/30 01:33:38;;;;;;;;;1.00;1.00;;;;;;;;5011607;28;45509;-62
2022/05/30 01:36:03;;;;;;;;;2.00;2.00;;;;;;;;4999755;28;45552;-62
2022/05/30 01:38:28;;;;;;;;;2.00;2.00;;;;;;;;4996393;28;46520;-63
2022/05/30 01:40:55;;;;;;;;;2.00;2.00;;;;;;;;5002804;28;45723;-62
2022/05/30 01:43:20;;;;;;;;;1.00;1.00;;;;;;;;5010478;28;45737;-62
2022/05/30 01:45:45;;;;;;;;;3.00;2.00;;;;;;;;4996060;28;45448;-63
2022/05/30 01:48:10;;;;;;;;;2.00;2.00;;;;;;;;4999046;28;45828;-61
2022/05/30 01:50:36;;;;;;;;;2.75;2.75;;;;;;;;5008610;28;45517;-62
2022/05/30 01:53:01;;;;;;;;;2.75;2.50;;;;;;;;5011962;28;45658;-62
2022/05/30 01:55:26;;;;;;;;;2.00;2.00;;;;;;;;5005086;28;45519;-63
2022/05/30 01:57:51;;;;;;;;;2.25;2.25;;;;;;;;4996030;28;45514;-64
2022/05/30 02:00:17;;;;;;;;;3.75;2.00;;;;;;;;5008578;28;46079;-62
2022/05/30 02:02:42;;;;;;;;;2.00;2.00;;;;;;;;5004990;28;45416;-62
2022/05/30 02:05:07;;;;;;;;;3.50;2.25;;;;;;;;5006542;28;45380;-61
2022/05/30 02:07:33;;;;;;;;;2.25;2.25;;;;;;;;5005110;28;46189;-62
2022/05/30 02:09:59;;;;;;;;;4.00;3.00;;;;;;;;5007204;28;45395;-62
2022/05/30 02:12:24;;;;;;;;;2.00;2.00;;;;;;;;5006430;28;46100;-63
2022/05/30 02:14:49;;;;;;;;;3.00;3.00;;;;;;;;5008517;28;45450;-62
2022/05/30 02:17:15;;;;;;;;;2.00;2.00;;;;;;;;5011122;28;46549;-62
2022/05/30 02:19:41;;;;;;;;;2.50;2.50;;;;;;;;4995845;28;45319;-62
2022/05/30 02:22:08;;;;;;;;;4.00;2.00;;;;;;;;4996164;28;45372;-62
2022/05/30 02:24:34;;;;;;;;;2.75;2.75;;;;;;;;5002597;28;45394;-62
2022/05/30 02:26:59;;;;;;;;;4.25;3.25;;;;;;;;5007637;28;46407;-61
2022/05/30 02:29:24;;;;;;;;;3.00;3.00;;;;;;;;4998323;28;45396;-61
2022/05/30 02:31:50;;;;;;;;;4.00;3.00;;;;;;;;5008182;28;46934;-62
2022/05/30 02:36:59;;;;;;;;;3.00;3.00;;;;;;;;5008096;28;45836;-61
2022/05/30 02:39:25;;;;;;;;;2.25;2.25;;;;;;;;5007940;28;45478;-62
2022/05/30 02:41:51;;;;;;;;;4.00;3.00;;;;;;;;4994018;28;45493;-62
2022/05/30 02:44:20;;;;;;;;;3.00;3.00;;;;;;;;4999107;28;45470;-61
2022/05/30 02:46:49;;;;;;;;;4.25;4.00;;;;;;;;4990859;28;47613;-61
2022/05/30 02:49:15;;;;;;;;;4.00;4.00;;;;;;;;5023266;28;45317;-62
2022/05/30 02:51:41;;;;;;;;;3.50;3.50;;;;;;;;5027982;28;45441;-62
2022/05/30 02:54:06;;;;;;;;;3.00;3.00;;;;;;;;5013156;28;45488;-62
2022/05/30 02:56:31;;;;;;;;;3.25;3.25;;;;;;;;5030242;28;46585;-62
2022/05/30 02:58:57;;;;;;;;;3.25;3.25;;;;;;;;5023878;28;45357;-62
2022/05/30 03:01:22;;;;;;;;;3.25;3.25;;;;;;;;5024467;28;45691;-61
2022/05/30 03:03:47;;;;;;;;;4.25;4.25;;;;;;;;5007788;28;45542;-60
2022/05/30 03:06:13;;;;;;;;;4.50;4.00;;;;;;;;5031064;28;46522;-61
2022/05/30 03:08:38;;;;;;;;;3.00;3.00;;;;;;;;5031737;28;45527;-61
2022/05/30 03:11:03;;;;;;;;;5.00;4.00;;;;;;;;5034190;28;45407;-61
2022/05/30 03:13:29;;;;;;;;;3.50;3.50;;;;;;;;5013804;28;45367;-60
2022/05/30 03:15:55;;;;;;;;;3.00;3.00;;;;;;;;5029789;28;46139;-61
2022/05/30 03:18:20;;;;;;;;;4.75;4.75;;;;;;;;5031924;28;45390;-63
2022/05/30 03:20:45;;;;;;;;;3.75;3.75;;;;;;;;5030586;28;45480;-62
2022/05/30 03:23:10;;;;;;;;;4.25;4.25;;;;;;;;5032581;28;45420;-60
2022/05/30 03:25:35;;;;;;;;;3.00;3.00;;;;;;;;5032020;28;45625;-61
2022/05/30 03:28:01;;;;;;;;;3.00;3.00;;;;;;;;5030420;28;45452;-60
2022/05/30 03:30:26;;;;;;;;;5.75;4.00;;;;;;;;5032087;28;46029;-61
2022/05/30 03:32:52;;;;;;;;;2.50;2.50;;;;;;;;5032039;28;45513;-61
2022/05/30 03:35:17;;;;;;;;;5.50;5.50;;;;;;;;5015869;28;47500;-60
2022/05/30 03:37:43;;;;;;;;;7.00;5.75;;;;;;;;5030494;28;45268;-61
2022/05/30 03:40:10;;;;;;;;;4.00;4.00;;;;;;;;5031670;28;45500;-61
2022/05/30 03:42:35;;;;;;;;;7.25;6.25;;;;;;;;5014094;28;45599;-61
2022/05/30 03:45:00;;;;;;;;;4.25;4.00;;;;;;;;5032712;28;46775;-61
2022/05/30 03:47:26;;;;;;;;;5.00;5.00;;;;;;;;5015593;28;45483;-61
2022/05/30 03:49:57;;;;;;;;;4.50;4.50;;;;;;;;5035674;28;45420;-61
2022/05/30 03:52:22;;;;;;;;;5.00;5.00;;;;;;;;5035270;28;45468;-61
2022/05/30 03:54:48;;;;;;;;;3.50;3.50;;;;;;;;5034899;28;46073;-61
2022/05/30 03:57:14;;;;;;;;;5.25;4.25;;;;;;;;5017153;28;46706;-61
2022/05/30 03:59:39;;;;;;;;;4.75;4.75;;;;;;;;5035113;28;49406;-62
2022/05/30 04:02:04;;;;;;;;;8.75;5.25;;;;;;;;5035016;28;45374;-58
2022/05/30 04:04:29;;;;;;;;;5.00;4.00;;;;;;;;5034760;28;45405;-62
2022/05/30 04:06:55;;;;;;;;;6.75;5.00;;;;;;;;5033432;28;45705;-61
2022/05/30 04:09:20;;;;;;;;;5.25;4.25;;;;;;;;5035119;28;45354;-62
2022/05/30 04:11:45;;;;;;;;;5.00;4.50;;;;;;;;5034811;28;45469;-60
2022/05/30 04:14:10;;;;;;;;;7.25;5.25;;;;;;;;5036967;28;45576;-62
2022/05/30 04:16:35;;;;;;;;;7.50;5.50;;;;;;;;5034705;28;45617;-60
2022/05/30 04:19:01;;;;;;;;;5.50;4.00;;;;;;;;5034493;28;45786;-62
2022/05/30 04:21:26;;;;;;;;;3.00;3.00;;;;;;;;5034734;28;45348;-62
2022/05/30 04:23:52;;;;;;;;;6.25;5.00;;;;;;;;5016618;28;47508;-62
2022/05/30 04:26:17;;;;;;;;;5.00;4.00;;;;;;;;5036581;28;45350;-62
2022/05/30 04:28:42;;;;;;;;;3.75;3.75;;;;;;;;5034478;28;45443;-62
2022/05/30 04:31:10;;;;;;;;;5.50;5.50;;;;;;;;5034153;28;45604;-62
2022/05/30 04:33:36;;;;;;;;;8.25;6.00;;;;;;;;5034329;28;45855;-61
2022/05/30 04:36:03;;;;;;;;;5.00;4.00;;;;;;;;5013996;28;45449;-61
2022/05/30 04:38:28;;;;;;;;;1.50;1.50;;;;;;;;5012283;28;45446;-61
2022/05/30 04:40:53;;;;;;;;;5.25;5.00;;;;;;;;5014201;28;45491;-60
2022/05/30 04:43:19;;;;;;;;;6.00;4.75;;;;;;;;5029581;28;45683;-61
2022/05/30 04:45:44;;;;;;;;;5.00;4.00;;;;;;;;5027729;28;45553;-61
2022/05/30 04:48:10;;;;;;;;;3.50;3.00;;;;;;;;4993237;28;45555;-61
2022/05/30 04:50:35;;;;;;;;;4.25;4.25;;;;;;;;5012957;28;45422;-61
2022/05/30 04:53:00;;;;;;;;;6.25;5.25;;;;;;;;5014406;28;46316;-60
2022/05/30 04:55:25;;;;;;;;;4.00;4.00;;;;;;;;4992430;28;45884;-61
2022/05/30 04:57:51;;;;;;;;;5.25;4.75;;;;;;;;5004686;28;45831;-61
2022/05/30 05:00:18;;;;;;;;;5.00;4.00;;;;;;;;5013948;28;45404;-61
2022/05/30 05:02:44;;;;;;;;;5.75;4.75;;;;;;;;4995582;28;46854;-61
2022/05/30 05:05:09;;;;;;;;;5.75;5.00;;;;;;;;5010544;28;45866;-62
2022/05/30 05:07:39;;;;;;;;;5.75;5.25;;;;;;;;5010919;28;45590;-62
2022/05/30 05:10:24;;;;;;;;;4.50;4.50;;;;;;;;5004016;28;45477;-60
2022/05/30 05:12:49;;;;;;;;;6.00;5.25;;;;;;;;5000148;28;45756;-62
2022/05/30 05:15:15;;;;;;;;;7.25;4.25;;;;;;;;4997306;28;45481;-61
2022/05/30 05:17:40;;;;;;;;;8.50;6.00;;;;;;;;5008443;28;45291;-62
2022/05/30 05:20:05;;;;;;;;;4.25;4.25;;;;;;;;4996170;28;45559;-61
2022/05/30 05:22:30;;;;;;;;;3.00;3.00;;;;;;;;4999879;28;45851;-62
2022/05/30 05:24:56;;;;;;;;;5.50;5.00;;;;;;;;5008816;28;45625;-61
2022/05/30 05:27:21;;;;;;;;;4.75;4.75;;;;;;;;5011255;28;45529;-62
2022/05/30 05:29:46;;;;;;;;;6.50;5.25;;;;;;;;5011382;28;45562;-62
2022/05/30 05:32:11;;;;;;;;;5.00;5.00;;;;;;;;5004604;28;46125;-61
2022/05/30 05:34:37;;;;;;;;;7.50;6.50;;;;;;;;5005676;28;45461;-61
2022/05/30 05:37:02;;;;;;;;;3.00;3.00;;;;;;;;5010271;28;45367;-61
2022/05/30 05:39:27;;;;;;;;;6.00;5.25;;;;;;;;5011405;28;45517;-62
2022/05/30 05:41:52;;;;;;;;;6.00;6.00;;;;;;;;5010309;28;45780;-62
2022/05/30 05:44:18;;;;;;;;;7.00;5.00;;;;;;;;5010247;28;45482;-61
2022/05/30 05:46:44;;;;;;;;;8.50;6.00;;;;;;;;4999566;28;45367;-61
2022/05/30 05:49:10;;;;;;;;;7.25;7.00;;;;;;;;5023173;28;45537;-60
2022/05/30 05:51:35;;;;;;;;;8.50;6.00;;;;;;;;5008504;28;46597;-61
2022/05/30 05:54:01;;;;;;;;;10.50;6.75;;;;;;;;5027913;28;45431;-61
2022/05/30 05:56:27;;;;;;;;;8.25;6.25;;;;;;;;5027718;28;45538;-62
2022/05/30 05:58:53;;;;;;;;;8.50;6.00;;;;;;;;5013281;28;45489;-62
2022/05/30 06:01:26;;;;;;;;;7.50;7.50;;;;;;;;5015820;28;46645;-62
2022/05/30 06:03:53;;;;;;;;;6.00;6.00;;;;;;;;5031388;28;45681;-62
2022/05/30 06:06:18;;;;;;;;;8.25;7.00;;;;;;;;5026549;28;45425;-63
2022/05/30 06:08:43;;;;;;;;;5.75;4.75;;;;;;;;5007261;28;45472;-61
2022/05/30 06:11:08;;;;;;;;;7.25;7.25;;;;;;;;5025834;28;46616;-62
2022/05/30 06:13:41;;;;;;;;;5.25;5.00;;;;;;;;5024076;28;45505;-62
2022/05/30 06:16:11;;;;;;;;;5.00;5.00;;;;;;;;5030917;28;45213;-62
2022/05/30 06:18:36;;;;;;;;;10.25;7.50;;;;;;;;5021868;28;45410;-63
2022/05/30 06:21:02;;;;;;;;;7.75;6.25;;;;;;;;5018623;28;46474;-62
2022/05/30 06:23:28;;;;;;;;;6.00;4.50;;;;;;;;5014980;28;45411;-62
2022/05/30 06:25:54;;;;;;;;;7.25;5.75;;;;;;;;5015443;28;45529;-61
2022/05/30 06:28:19;;;;;;;;;4.25;4.25;;;;;;;;5028385;28;45446;-63
2022/05/30 06:30:44;;;;;;;;;6.00;4.50;;;;;;;;5016765;28;45643;-64
2022/05/30 06:33:09;;;;;;;;;4.25;4.25;;;;;;;;5021793;28;45271;-63
2022/05/30 06:35:38;;;;;;;;;6.25;4.25;;;;;;;;5019774;28;45450;-64
2022/05/30 06:38:03;;;;;;;;;6.75;5.50;;;;;;;;5021076;28;45503;-63
2022/05/30 06:40:29;;;;;;;;;4.75;4.75;;;;;;;;5015303;28;46308;-62
2022/05/30 06:42:54;;;;;;;;;7.00;6.75;;;;;;;;5016486;28;45417;-64
2022/05/30 06:45:19;;;;;;;;;4.00;4.00;;;;;;;;5016413;28;45367;-63
2022/05/30 06:47:45;;;;;;;;;7.25;5.75;;;;;;;;5025818;28;45503;-63
2022/05/30 06:50:10;;;;;;;;;4.50;4.50;;;;;;;;5027188;28;46690;-64
2022/05/30 06:52:35;;;;;;;;;6.25;6.25;;;;;;;;5013970;28;45429;-63
2022/05/30 06:55:01;;;;;;;;;7.75;6.00;;;;;;;;5017073;28;45272;-64
2022/05/30 07:00:10;;;;;;;;;6.50;6.00;;;;;;;;5027119;28;45788;-65
2022/05/30 07:02:36;;;;;;;;;6.50;5.25;;;;;;;;5027269;28;45450;-64
2022/05/30 07:05:01;;;;;;;;;4.75;4.00;;;;;;;;5027046;28;45458;-62
2022/05/30 07:07:26;;;;;;;;;5.00;5.00;;;;;;;;5013242;28;45498;-65
2022/05/30 07:09:52;;;;;;;;;4.25;4.25;;;;;;;;5034088;28;45636;-63
2022/05/30 07:12:17;;;;;;;;;5.00;5.00;;;;;;;;5030566;28;45477;-63
2022/05/30 07:14:42;;;;;;;;;5.00;5.00;;;;;;;;5032486;28;45360;-64
2022/05/30 07:17:10;;;;;;;;;6.25;5.75;;;;;;;;5030752;28;45544;-64
2022/05/30 07:19:35;;;;;;;;;6.25;5.25;;;;;;;;5014219;28;48408;-63
2022/05/30 07:22:02;;;;;;;;;5.50;5.25;;;;;;;;5036450;28;45269;-63
2022/05/30 07:24:27;;;;;;;;;8.25;8.00;;;;;;;;5036156;28;45347;-65
2022/05/30 07:26:52;;;;;;;;;5.50;5.50;;;;;;;;5030413;28;45550;-63
2022/05/30 07:29:17;;;;;;;;;6.00;5.25;;;;;;;;5025125;28;46394;-64
2022/05/30 07:31:42;;;;;;;;;10.50;7.00;;;;;;;;5017280;28;45501;-63
2022/05/30 07:34:08;;;;;;;;;4.00;4.00;;;;;;;;5032444;28;45503;-65
2022/05/30 07:36:33;;;;;;;;;6.50;6.00;;;;;;;;5034884;28;45574;-63
2022/05/30 07:38:58;;;;;;;;;5.75;5.00;;;;;;;;5035023;28;47293;-63
2022/05/30 07:41:25;;;;;;;;;5.25;5.25;;;;;;;;5034829;28;45557;-64
2022/05/30 07:43:50;;;;;;;;;7.00;6.00;;;;;;;;5033818;28;45476;-63
2022/05/30 07:46:16;;;;;;;;;4.50;4.25;;;;;;;;5027106;28;45453;-63
2022/05/30 07:48:42;;;;;;;;;6.50;4.75;;;;;;;;4996309;28;46621;-64
2022/05/30 07:51:09;;;;;;;;;3.00;3.00;;;;;;;;4995103;28;45423;-63
2022/05/30 07:53:35;;;;;;;;;5.50;2.50;;;;;;;;5013937;28;45617;-65
2022/05/30 07:56:03;;;;;;;;;5.25;5.25;;;;;;;;5013746;28;45322;-64
2022/05/30 07:58:28;;;;;;;;;4.25;3.00;;;;;;;;5014958;28;46356;-64
2022/05/30 08:00:53;;;;;;;;;3.00;2.75;;;;;;;;5016867;28;45542;-64
2022/05/30 08:03:19;;;;;;;;;2.75;2.75;;;;;;;;5014687;28;45286;-65
2022/05/30 08:05:47;;;;;;;;;4.00;4.00;;;;;;;;4996428;28;45278;-64
2022/05/30 08:08:12;;;;;;;;;4.50;3.25;;;;;;;;5012432;28;46526;-64
2022/05/30 08:10:38;;;;;;;;;4.50;4.00;;;;;;;;5014316;28;45546;-64
2022/05/30 08:13:03;;;;;;;;;3.75;3.75;;;;;;;;4997261;28;45388;-64
2022/05/30 08:15:29;;;;;;;;;5.25;4.25;;;;;;;;5014350;28;45386;-64
2022/05/30 08:17:55;;;;;;;;;3.00;3.00;;;;;;;;5014278;28;45722;-65
2022/05/30 08:20:20;;;;;;;;;2.75;2.75;;;;;;;;5014163;28;45378;-64
2022/05/30 08:22:46;;;;;;;;;4.50;3.25;;;;;;;;5014574;28;45407;-63
2022/05/30 08:25:15;;;;;;;;;2.50;2.50;;;;;;;;5011859;28;45596;-64
2022/05/30 08:27:41;;;;;;;;;4.50;3.00;;;;;;;;5014969;28;45778;-65
2022/05/30 08:30:07;;;;;;;;;4.00;2.00;;;;;;;;5014538;28;45492;-64
2022/05/30 08:32:33;;;;;;;;;2.00;1.75;;;;;;;;5014753;28;45586;-65
2022/05/30 08:34:59;;;;;;;;;3.00;3.00;;;;;;;;5013283;28;46124;-65
2022/05/30 08:37:30;;;;;;;;;1.50;1.50;;;;;;;;4998624;28;46211;-65
2022/05/30 08:42:39;;;;;;;;;3.00;2.25;;;;;;;;5014745;28;45391;-66
2022/05/30 08:45:06;;;;;;;;;3.00;2.00;;;;;;;;5014248;28;45461;-65
2022/05/30 08:47:44;;;;;;;;;5.00;2.75;;;;;;;;5027517;28;46490;-65
2022/05/30 08:50:30;;;;;;;;;1.00;1.00;;;;;;;;5022846;28;45560;-65
2022/05/30 08:52:59;;;;;;;;;2.00;2.00;;;;;;;;5034343;28;45486;-65
2022/05/30 08:55:24;;;;;;;;;3.25;1.50;;;;;;;;5017188;28;45490;-64
2022/05/30 08:58:08;;;;;;;;;3.50;2.00;;;;;;;;5035908;28;46344;-65
2022/05/30 09:00:38;;;;;;;;;3.00;3.00;;;;;;;;5035565;28;45544;-65
2022/05/30 09:03:03;;;;;;;;;2.50;1.50;;;;;;;;5035531;28;45603;-64
2022/05/30 09:05:33;;;;;;;;;2.75;2.75;;;;;;;;5036087;28;45875;-65
2022/05/30 09:08:02;;;;;;;;;2.75;2.75;;;;;;;;5034067;28;46587;-65
2022/05/30 09:10:30;;;;;;;;;2.00;2.00;;;;;;;;5032332;28;45537;-65
2022/05/30 09:13:06;;;;;;;;;2.75;1.75;;;;;;;;5014863;28;45482;-64
2022/05/30 09:15:52;;;;;;;;;1.50;1.50;;;;;;;;5014154;28;45814;-65
2022/05/30 09:18:20;;;;;;;;;1.00;1.00;;;;;;;;4970976;28;45518;-63
2022/05/30 09:20:45;;;;;;;;;2.25;1.25;;;;;;;;4971976;28;46212;-64
2022/05/30 09:23:11;;;;;;;;;2.00;2.00;;;;;;;;4956202;28;45501;-64
2022/05/30 09:25:56;;;;;;;;;1.00;1.00;;;;;;;;4955472;28;45598;-64
2022/05/30 09:28:22;;;;;;;;;1.25;0.50;;;;;;;;4972105;28;46371;-64
2022/05/30 09:31:06;;;;;;;;;1.00;1.00;;;;;;;;4985717;28;45388;-63
2022/05/30 09:33:33;;;;;;;;;1.00;1.00;;;;;;;;4973371;28;45432;-65
2022/05/30 09:36:10;;;;;;;;;0.25;0.25;;;;;;;;4972009;28;45440;-65
2022/05/30 09:38:40;;;;;;;;;1.00;1.00;;;;;;;;4983678;28;47803;-65
2022/05/30 09:41:06;;;;;;;;;0.00;0.00;;;;;;;;4971733;28;45531;-64
2022/05/30 09:43:43;;;;;;;;;0.25;0.25;;;;;;;;4971324;28;45634;-65
2022/05/30 09:46:15;;;;;;;;;0.00;0.00;;;;;;;;4965228;28;45590;-64
2022/05/30 09:48:57;;;;;;;;;0.00;0.00;;;;;;;;4952139;28;45478;-65
2022/05/30 09:51:43;;;;;;;;;2.25;0.50;;;;;;;;4951036;28;45599;-65
2022/05/30 09:54:12;;;;;;;;;0.50;0.50;;;;;;;;4950273;28;45588;-64
2022/05/30 09:56:40;;;;;;;;;1.00;1.00;;;;;;;;5011554;28;45358;-65
2022/05/30 09:59:10;;;;;;;;;1.00;1.00;;;;;;;;5012612;28;46277;-63
2022/05/30 10:01:36;;;;;;;;;1.00;0.50;;;;;;;;5012814;28;45620;-64
2022/05/30 10:04:12;;;;;;;;;0.75;0.75;;;;;;;;5014189;28;45394;-63
2022/05/30 10:06:37;;;;;;;;;2.25;1.00;;;;;;;;5008681;28;45347;-64
2022/05/30 10:09:12;;;;;;;;;0.50;0.25;;;;;;;;5003235;28;47172;-65
2022/05/30 10:11:37;;;;;;;;;1.50;1.50;;;;;;;;5000177;28;45598;-65
2022/05/30 10:14:18;;;;;;;;;0.00;0.00;;;;;;;;5000359;28;45348;-64
2022/05/30 10:16:43;;;;;;;;;0.50;0.50;;;;;;;;4997896;28;45712;-64
2022/05/30 10:19:11;;;;;;;;;1.00;1.00;;;;;;;;4996967;28;45972;-64
2022/05/30 10:21:36;;;;;;;;;1.00;1.00;;;;;;;;5002241;28;45700;-63
2022/05/30 10:30:02;;;;;;;;;0.00;0.00;;;;;;;;4997626;28;45409;-64
2022/05/30 10:32:32;;;;;;;;;0.25;0.25;;;;;;;;4948292;28;45460;-65
2022/05/30 10:34:58;;;;;;;;;1.00;0.25;;;;;;;;4955772;28;45407;-64
2022/05/30 10:37:23;;;;;;;;;1.00;1.00;;;;;;;;4952171;28;45430;-65
2022/05/30 10:39:57;;;;;;;;;1.25;0.00;;;;;;;;4957194;28;45755;-64
2022/05/30 10:42:41;;;;;;;;;0.00;0.00;;;;;;;;4956557;28;45687;-63
2022/05/30 10:45:28;;;;;;;;;1.00;1.00;;;;;;;;4956366;28;45466;-65
2022/05/30 10:47:54;;;;;;;;;2.00;2.00;;;;;;;;4951356;28;45543;-65
2022/05/30 10:50:26;;;;;;;;;1.00;1.00;;;;;;;;4951557;28;47255;-64
2022/05/30 10:52:59;;;;;;;;;1.00;1.00;;;;;;;;4952133;28;45470;-64
2022/05/30 10:55:38;;;;;;;;;0.00;0.00;;;;;;;;4935290;28;46145;-64
2022/05/30 10:58:15;;;;;;;;;1.75;1.75;;;;;;;;4952303;28;45559;-65
2022/05/30 11:00:46;;;;;;;;;0.50;0.50;;;;;;;;4950764;28;46007;-65
2022/05/30 11:03:35;;;;;;;;;0.75;0.75;;;;;;;;4951469;28;45580;-64
2022/05/30 11:06:05;;;;;;;;;2.00;2.00;;;;;;;;4951907;28;45431;-63
2022/05/30 11:08:37;;;;;;;;;0.25;0.25;;;;;;;;4970171;28;45502;-64
2022/05/30 11:11:19;;;;;;;;;1.00;1.00;;;;;;;;5006269;28;47457;-65
2022/05/30 11:13:54;;;;;;;;;2.00;2.00;;;;;;;;5010299;28;45578;-63
2022/05/30 11:16:20;;;;;;;;;0.25;0.25;;;;;;;;5012496;28;45431;-63
2022/05/30 11:19:03;;;;;;;;;0.25;0.25;;;;;;;;5013729;28;45969;-65
2022/05/30 11:21:28;;;;;;;;;1.00;1.00;;;;;;;;5012010;28;45601;-65
2022/05/30 11:23:53;;;;;;;;;0.00;0.00;;;;;;;;5005434;28;45815;-65
2022/05/30 11:26:19;;;;;;;;;0.75;0.75;;;;;;;;5001037;28;45512;-65
2022/05/30 11:28:47;;;;;;;;;0.00;0.00;;;;;;;;4998500;28;45933;-63
2022/05/30 11:31:30;;;;;;;;;0.25;0.25;;;;;;;;4997118;28;46553;-64
2022/05/30 11:33:56;;;;;;;;;1.25;0.00;;;;;;;;4994339;28;45300;-64
2022/05/30 11:36:21;;;;;;;;;1.00;1.00;;;;;;;;5010992;28;46378;-64
2022/05/30 11:38:49;;;;;;;;;1.00;0.00;;;;;;;;5014042;28;45351;-63
2022/05/30 11:41:33;;;;;;;;;0.00;0.00;;;;;;;;5011281;28;45785;-65
2022/05/30 11:44:07;;;;;;;;;0.75;0.75;;;;;;;;5001707;28;45547;-64
2022/05/30 11:46:42;;;;;;;;;0.75;0.75;;;;;;;;5005603;28;45447;-65
2022/05/30 11:49:17;;;;;;;;;2.00;0.00;;;;;;;;4998867;28;45449;-64
2022/05/30 11:51:55;;;;;;;;;1.25;1.25;;;;;;;;5032061;28;45755;-64
2022/05/30 11:54:35;;;;;;;;;1.00;1.00;;;;;;;;5031632;28;45533;-63
2022/05/30 11:57:19;;;;;;;;;0.75;0.75;;;;;;;;5031690;28;45544;-62
2022/05/30 11:59:44;;;;;;;;;1.00;1.00;;;;;;;;5031498;28;45800;-64
2022/05/30 12:02:22;;;;;;;;;0.00;0.00;;;;;;;;5013203;28;47616;-65
2022/05/30 12:05:00;;;;;;;;;1.00;1.00;;;;;;;;5031177;28;45918;-63
2022/05/30 12:07:35;;;;;;;;;0.50;0.50;;;;;;;;5016007;28;45408;-63
2022/05/30 12:10:39;;;;;;;;;0.00;0.00;;;;;;;;5018490;28;45429;-64
2022/05/30 12:13:04;;;;;;;;;1.00;1.00;;;;;;;;4952450;28;46584;-64
2022/05/30 12:15:47;;;;;;;;;0.00;0.00;;;;;;;;4955816;28;45640;-64
2022/05/30 12:24:18;;;;;;;;;1.00;1.00;;;;;;;;4954899;28;45902;-65
2022/05/30 12:26:57;;;;;;;;;1.00;1.00;;;;;;;;4952737;28;45500;-63
2022/05/30 12:29:37;;;;;;;;;1.00;1.00;;;;;;;;4955042;28;45993;-64
2022/05/30 12:32:16;;;;;;;;;1.00;1.00;;;;;;;;4953563;28;45660;-63
2022/05/30 12:35:10;;;;;;;;;1.00;1.00;;;;;;;;4937538;28;46438;-63
2022/05/30 12:37:38;;;;;;;;;1.00;0.00;;;;;;;;4923381;28;45451;-64
2022/05/30 12:40:09;;;;;;;;;0.00;0.00;;;;;;;;4938223;28;45383;-64
2022/05/30 12:42:35;;;;;;;;;0.00;0.00;;;;;;;;4955111;28;45380;-64
2022/05/30 12:45:20;;;;;;;;;1.75;0.00;;;;;;;;5026950;28;47700;-64
2022/05/30 12:47:51;;;;;;;;;0.75;0.75;;;;;;;;5036567;28;45514;-63
2022/05/30 12:50:32;;;;;;;;;1.00;1.00;;;;;;;;5005407;28;45429;-65
2022/05/30 12:52:59;;;;;;;;;1.75;1.00;;;;;;;;5033562;28;45606;-64
2022/05/30 12:55:48;;;;;;;;;2.75;1.75;;;;;;;;5033712;28;47774;-65
2022/05/30 12:58:19;;;;;;;;;1.00;0.50;;;;;;;;5015993;28;45639;-65
2022/05/30 13:00:44;;;;;;;;;1.75;1.00;;;;;;;;5034540;28;45414;-64
2022/05/30 13:03:09;;;;;;;;;1.00;1.00;;;;;;;;5033415;28;45471;-64
2022/05/30 13:05:35;;;;;;;;;2.75;1.00;;;;;;;;5033396;28;46328;-64
2022/05/30 13:08:01;;;;;;;;;0.00;0.00;;;;;;;;5031952;28;45548;-64
2022/05/30 13:10:36;;;;;;;;;1.25;1.00;;;;;;;;5033974;28;45715;-64
2022/05/30 13:13:07;;;;;;;;;1.00;1.00;;;;;;;;5013660;28;45409;-65
2022/05/30 13:15:43;;;;;;;;;0.50;0.50;;;;;;;;5034458;28;45747;-64
2022/05/30 13:18:12;;;;;;;;;1.00;1.00;;;;;;;;5013907;28;46784;-65
2022/05/30 13:20:45;;;;;;;;;1.50;1.50;;;;;;;;5032423;28;45521;-64
2022/05/30 13:23:10;;;;;;;;;1.75;0.75;;;;;;;;5034496;28;45355;-64
2022/05/30 13:25:47;;;;;;;;;1.00;1.00;;;;;;;;5033337;28;46684;-64
2022/05/30 13:28:15;;;;;;;;;0.50;0.50;;;;;;;;5015639;28;45442;-64
2022/05/30 13:30:41;;;;;;;;;2.00;1.00;;;;;;;;5033752;28;45370;-65
2022/05/30 13:33:15;;;;;;;;;1.50;1.50;;;;;;;;5033152;28;45326;-64
2022/05/30 13:35:40;;;;;;;;;1.75;0.50;;;;;;;;5033001;28;45434;-64
2022/05/30 13:38:08;;;;;;;;;1.00;1.00;;;;;;;;5032856;28;45410;-64
2022/05/30 13:40:34;;;;;;;;;1.00;1.00;;;;;;;;5033431;28;45653;-63
2022/05/30 13:43:05;;;;;;;;;1.00;1.00;;;;;;;;5034547;28;45562;-64
2022/05/30 13:45:33;;;;;;;;;2.75;1.00;;;;;;;;5033935;28;46153;-64
2022/05/30 13:48:00;;;;;;;;;0.00;0.00;;;;;;;;5031217;28;45492;-64
2022/05/30 13:50:35;;;;;;;;;1.00;1.00;;;;;;;;5032792;28;45200;-64
2022/05/30 13:53:01;;;;;;;;;1.00;1.00;;;;;;;;5032801;28;45425;-64
2022/05/30 13:55:26;;;;;;;;;1.00;1.00;;;;;;;;5032636;28;46053;-64
2022/05/30 13:57:52;;;;;;;;;2.00;2.00;;;;;;;;5035031;28;45359;-64
2022/05/30 14:00:30;;;;;;;;;1.00;1.00;;;;;;;;5032263;28;45507;-64
2022/05/30 14:02:56;;;;;;;;;1.00;1.00;;;;;;;;5027947;28;49793;-64
2022/05/30 14:05:32;;;;;;;;;2.00;2.00;;;;;;;;5022706;28;48674;-64
2022/05/30 14:07:59;;;;;;;;;2.50;1.75;;;;;;;;5032513;28;45425;-64
2022/05/30 14:10:25;;;;;;;;;1.00;1.00;;;;;;;;5017087;28;45701;-66
2022/05/30 14:12:51;;;;;;;;;0.00;0.00;;;;;;;;5029959;28;45480;-65
2022/05/30 14:15:22;;;;;;;;;0.00;0.00;;;;;;;;5030310;28;46425;-64
2022/05/30 14:17:48;;;;;;;;;0.75;0.75;;;;;;;;5032160;28;45547;-65
2022/05/30 14:20:25;;;;;;;;;0.00;0.00;;;;;;;;5014877;28;45469;-64
2022/05/30 14:22:54;;;;;;;;;2.25;1.00;;;;;;;;5025464;28;45389;-64
2022/05/30 14:25:38;;;;;;;;;1.00;1.00;;;;;;;;5031851;28;47706;-64
2022/05/30 14:28:09;;;;;;;;;1.00;1.00;;;;;;;;5030451;28;45429;-64
2022/05/30 14:30:35;;;;;;;;;1.75;1.50;;;;;;;;5031682;28;45485;-64
2022/05/30 14:33:06;;;;;;;;;1.75;1.75;;;;;;;;5031828;28;45446;-64
2022/05/30 14:35:31;;;;;;;;;0.00;0.00;;;;;;;;5031778;28;47640;-64
2022/05/30 14:37:56;;;;;;;;;1.00;1.00;;;;;;;;5013964;28;45460;-64
2022/05/30 14:40:30;;;;;;;;;1.00;1.00;;;;;;;;5032213;28;45604;-64
2022/05/30 14:42:56;;;;;;;;;0.50;0.50;;;;;;;;5030281;28;45922;-64
2022/05/30 14:45:36;;;;;;;;;1.00;1.00;;;;;;;;5012307;28;46974;-65
2022/05/30 14:48:27;;;;;;;;;1.00;1.00;;;;;;;;5030429;28;45502;-64
2022/05/30 14:51:04;;;;;;;;;1.00;1.00;;;;;;;;5028464;28;45621;-63
2022/05/30 14:53:31;;;;;;;;;1.00;1.00;;;;;;;;5031897;28;45379;-65
2022/05/30 14:55:59;;;;;;;;;1.00;1.00;;;;;;;;5031942;28;47380;-65
2022/05/30 14:58:28;;;;;;;;;1.00;1.00;;;;;;;;5014938;28;45502;-63
2022/05/30 15:01:01;;;;;;;;;0.50;0.50;;;;;;;;5034131;28;45476;-64
2022/05/30 15:06:14;;;;;;;;;1.00;1.00;;;;;;;;5031677;28;45722;-63
2022/05/30 15:08:40;;;;;;;;;1.00;1.00;;;;;;;;5031854;28;45312;-63
2022/05/30 15:11:16;;;;;;;;;1.00;1.00;;;;;;;;5013613;28;45358;-62
2022/05/30 15:13:42;;;;;;;;;1.25;1.25;;;;;;;;5013746;28;45406;-63
2022/05/30 15:16:07;;;;;;;;;1.75;1.75;;;;;;;;5032225;28;46378;-63
2022/05/30 15:18:32;;;;;;;;;1.50;1.50;;;;;;;;5015014;28;45342;-62